This is the latest recevied weather packets stored in our database for station/object SM0PQB-13. If no packets are shown the sender has not sent any weather packets the latest 10 day(s).
| Time | Temp. | Humidity | Pressure | Rain* | Wind** | Luminosity | Snow |
|---|---|---|---|---|---|---|---|
| 1777831755 | 21.67° C | 38% | 1007.2 hPa | - | - | - | - |
| 1777831152 | 22.22° C | 38% | 1007 hPa | - | - | - | - |
| 1777830552 | 22.22° C | 38% | 1007 hPa | - | - | - | - |
| 1777829952 | 22.22° C | 38% | 1007.1 hPa | - | - | - | - |
| 1777829352 | 22.22° C | 38% | 1007.1 hPa | - | - | - | - |
| 1777828752 | 21.67° C | 38% | 1007.3 hPa | - | - | - | - |
| 1777828153 | 21.67° C | 38% | 1007.3 hPa | - | - | - | - |
| 1777827552 | 21.67° C | 38% | 1007.3 hPa | - | - | - | - |
| 1777826953 | 22.22° C | 38% | 1007.4 hPa | - | - | - | - |
| 1777826352 | 22.22° C | 38% | 1007.4 hPa | - | - | - | - |
| 1777825752 | 22.22° C | 38% | 1007.5 hPa | - | - | - | - |
| 1777824552 | 22.22° C | 38% | 1007.6 hPa | - | - | - | - |
| 1777823952 | 22.22° C | 39% | 1007.7 hPa | - | - | - | - |
| 1777823352 | 22.22° C | 38% | 1007.6 hPa | - | - | - | - |
| 1777822752 | 21.67° C | 38% | 1006.4 hPa | - | - | - | - |
| 1777822152 | 22.78° C | 39% | 1007.6 hPa | - | - | - | - |
| 1777821552 | 22.78° C | 39% | 1007.8 hPa | - | - | - | - |
| 1777820952 | 22.22° C | 40% | 1007.8 hPa | - | - | - | - |
| 1777820352 | 22.22° C | 40% | 1007.8 hPa | - | - | - | - |
| 1777819752 | 22.22° C | 40% | 1008 hPa | - | - | - | - |
| 1777819152 | 22.22° C | 40% | 1008.1 hPa | - | - | - | - |
| 1777818552 | 22.22° C | 40% | 1008.1 hPa | - | - | - | - |
| 1777817952 | 22.22° C | 40% | 1008.1 hPa | - | - | - | - |
| 1777817353 | 22.78° C | 40% | 1008.1 hPa | - | - | - | - |
| 1777816752 | 22.22° C | 41% | 1008.3 hPa | - | - | - | - |
* Rain since midnight (hover to see other rain measurements)
** Current wind speed in m/s (hover to see current wind gust speed)